Terminal Aerodrome Forecast
Issued by NWS Denver/Boulder, CO

Home | Current Version | Previous Version | Text Only | Print | Product List | Glossary On
Versions: 1 2 3 4 5 6 7 8 9 10 11 12 13 14 15 16 17 18 19 20 21 22 23 24 25 26 27 28 29 30 31 32 33 34 35 36 37 38 39 40 41 42 43 44 45 46 47 48 49 50
000
FTUS45 KBOU 300802 AAA
TAFDEN
TAF AMD
KDEN 300802Z 3008/3112 22008KT P6SM FEW140 BKN200
     FM301300 VRB05KT P6SM FEW080 BKN120
     FM301600 25007KT P6SM FEW060 BKN080 OVC120
     FM302000 34006KT P6SM SCT050 BKN070 OVC100
     FM310200 01007KT P6SM VCSH SCT030 BKN045 OVC060
      TEMPO 3103/3106 BKN025 OVC040
     FM310600 33008KT P6SM VCSH BKN025 OVC040
      TEMPO 3107/3111 3SM -SN BR BKN012 OVC025=

USA.gov is the U.S. government's official web portal to all federal, state and local government web resources and services.